Time;durP1;ratioP1;P1;durP2;ratioP2;P2;SDS_P1;SDS_P2;PMS_P1;PMS_P2;Temp;Humidity;BMP_temperature;BMP_pressure;BME280_temperature;BME280_humidity;BME280_pressure;Samples;Min_cycle;Max_cycle;Signal;HPM_P1;HPM_P2
2022/06/13 00:00:28;;;;;;;8.15;5.32;;;20.80;99.60;;;;;;5045254;28;21056;-74
2022/06/13 00:03:20;;;;;;;7.97;4.95;;;20.80;99.90;;;;;;5059137;28;20228;-74
2022/06/13 00:06:10;;;;;;;13.65;5.97;;;20.70;99.90;;;;;;5045079;28;20228;-73
2022/06/13 00:08:59;;;;;;;11.82;5.60;;;20.70;99.90;;;;;;5061532;28;20246;-74
2022/06/13 00:11:50;;;;;;;7.53;5.68;;;20.80;99.90;;;;;;5064555;28;20591;-74
2022/06/13 00:14:39;;;;;;;6.82;5.28;;;20.80;99.90;;;;;;5061646;28;20890;-74
2022/06/13 00:17:29;;;;;;;11.75;5.28;;;20.80;99.90;;;;;;5056892;28;20224;-74
2022/06/13 00:20:17;;;;;;;7.40;5.28;;;20.90;99.90;;;;;;5060218;28;20216;-74
2022/06/13 00:23:07;;;;;;;7.40;5.43;;;20.80;99.90;;;;;;5072936;28;20226;-75
2022/06/13 00:25:55;;;;;;;9.00;5.47;;;20.80;99.90;;;;;;5048470;28;21319;-75
2022/06/13 00:28:44;;;;;;;6.65;5.53;;;20.80;99.90;;;;;;5061330;28;20227;-72
2022/06/13 00:31:33;;;;;;;9.00;6.35;;;20.80;99.90;;;;;;5057799;28;20228;-74
2022/06/13 00:34:23;;;;;;;7.78;5.90;;;20.70;99.90;;;;;;5050933;28;20808;-74
2022/06/13 00:37:11;;;;;;;8.30;5.70;;;20.70;99.90;;;;;;5046342;28;20790;-74
2022/06/13 00:40:00;;;;;;;9.32;5.80;;;20.80;99.90;;;;;;5057101;28;20235;-72
2022/06/13 00:42:49;;;;;;;7.78;5.97;;;20.90;99.90;;;;;;5059672;28;20243;-73
2022/06/13 00:45:38;;;;;;;9.85;5.68;;;21.00;99.90;;;;;;5062759;28;20223;-74
2022/06/13 00:48:31;;;;;;;10.15;6.22;;;21.00;99.90;;;;;;5061334;28;20220;-73
2022/06/13 00:51:22;;;;;;;6.45;5.22;;;21.10;99.90;;;;;;5059142;28;20639;-71
2022/06/13 00:54:13;;;;;;;8.90;6.05;;;21.10;99.90;;;;;;5045975;28;20224;-73
2022/06/13 00:57:02;;;;;;;7.57;6.00;;;21.00;99.90;;;;;;5057720;28;20239;-73
2022/06/13 00:59:55;;;;;;;14.77;7.28;;;21.00;99.90;;;;;;5061711;28;20254;-74
2022/06/13 01:02:46;;;;;;;13.82;7.45;;;20.90;99.90;;;;;;5032422;28;20239;-72
2022/06/13 01:05:42;;;;;;;28.52;10.05;;;20.40;99.90;;;;;;5038815;28;20656;-69
2022/06/13 01:08:36;;;;;;;16.63;9.27;;;20.10;99.90;;;;;;5040503;28;20261;-73
2022/06/13 01:11:26;;;;;;;12.95;8.15;;;19.80;99.90;;;;;;5038223;28;20248;-72
2022/06/13 01:14:42;;;;;;;10.32;8.13;;;19.40;99.90;;;;;;5049391;28;20228;-72
2022/06/13 01:17:46;;;;;;;15.43;7.88;;;19.30;99.90;;;;;;5035729;28;20378;-74
2022/06/13 01:20:49;;;;;;;12.00;8.82;;;19.00;99.90;;;;;;5030419;28;20231;-72
2022/06/13 01:24:05;;;;;;;13.27;9.23;;;19.20;99.90;;;;;;5042790;28;20239;-72
2022/06/13 01:27:14;;;;;;;14.13;9.05;;;19.20;99.90;;;;;;5041563;28;20240;-72
2022/06/13 01:30:38;;;;;;;12.05;8.68;;;19.10;99.90;;;;;;5032116;28;20220;-72
2022/06/13 01:33:36;;;;;;;14.20;7.95;;;19.00;99.90;;;;;;5005582;28;20602;-72
2022/06/13 01:36:36;;;;;;;12.30;7.53;;;18.90;99.90;;;;;;5038886;28;20224;-74
2022/06/13 01:39:39;;;;;;;12.18;7.60;;;18.90;99.90;;;;;;5039126;28;20217;-75
2022/06/13 01:42:36;;;;;;;17.30;7.10;;;18.90;99.90;;;;;;5029135;28;20224;-74
2022/06/13 01:45:34;;;;;;;11.85;6.65;;;18.70;99.90;;;;;;5031515;28;20228;-71
2022/06/13 01:48:34;;;;;;;10.63;6.78;;;18.70;99.90;;;;;;5034362;28;20225;-73
2022/06/13 01:51:27;;;;;;;9.40;6.57;;;18.50;99.90;;;;;;5036763;28;20239;-73
2022/06/13 01:54:23;;;;;;;10.80;6.43;;;18.50;99.90;;;;;;5035909;28;20218;-74
2022/06/13 01:57:18;;;;;;;11.98;6.30;;;18.50;99.90;;;;;;5038425;28;20712;-74
2022/06/13 02:00:11;;;;;;;12.00;6.65;;;18.50;99.90;;;;;;5034100;28;20225;-72
2022/06/13 02:03:09;;;;;;;14.70;6.97;;;18.30;99.90;;;;;;5049458;28;20224;-72
2022/06/13 02:06:02;;;;;;;7.85;6.03;;;18.40;99.90;;;;;;5056232;28;20224;-73
2022/06/13 02:08:55;;;;;;;12.27;5.72;;;18.00;99.90;;;;;;5056102;28;20228;-73
2022/06/13 02:11:47;;;;;;;10.40;5.72;;;18.00;99.90;;;;;;5059355;28;20259;-73
2022/06/13 02:14:40;;;;;;;13.02;5.95;;;17.90;99.90;;;;;;5057412;28;20703;-73
2022/06/13 02:17:33;;;;;;;11.38;6.35;;;17.90;99.90;;;;;;5043272;28;20244;-72
2022/06/13 02:20:25;;;;;;;12.35;6.00;;;17.90;99.90;;;;;;5061349;28;20250;-73
2022/06/13 02:23:20;;;;;;;11.40;5.95;;;17.90;99.90;;;;;;5059989;28;20224;-74
2022/06/13 02:26:16;;;;;;;10.55;5.97;;;17.90;99.90;;;;;;5059405;28;20705;-74
2022/06/13 02:29:08;;;;;;;10.57;6.43;;;18.00;99.90;;;;;;5058891;28;20224;-74
2022/06/13 02:32:01;;;;;;;11.18;6.20;;;18.10;99.90;;;;;;5040364;28;20232;-71
2022/06/13 02:34:53;;;;;;;12.85;6.25;;;18.00;99.90;;;;;;5056065;28;20224;-74
2022/06/13 02:37:48;;;;;;;12.73;6.38;;;18.10;99.90;;;;;;5054704;28;20220;-72
2022/06/13 02:40:44;;;;;;;10.10;6.65;;;18.00;99.90;;;;;;5061628;28;20662;-73
2022/06/13 02:43:38;;;;;;;10.13;6.57;;;17.90;99.90;;;;;;5056818;28;20234;-72
2022/06/13 02:46:31;;;;;;;11.43;6.13;;;18.00;99.90;;;;;;5055665;28;20228;-73
2022/06/13 02:49:25;;;;;;;9.40;5.78;;;18.00;99.90;;;;;;5059604;28;20235;-73
2022/06/13 02:52:19;;;;;;;8.05;5.88;;;17.90;99.90;;;;;;5054460;28;20773;-74
2022/06/13 02:55:11;;;;;;;12.05;6.60;;;18.00;99.90;;;;;;5061420;28;20235;-74
2022/06/13 02:58:13;;;;;;;9.05;6.00;;;18.00;99.90;;;;;;5057060;28;20319;-72
2022/06/13 03:01:08;;;;;;;10.70;6.70;;;18.00;99.90;;;;;;5061657;28;20302;-73
2022/06/13 03:04:05;;;;;;;9.82;6.35;;;18.00;99.90;;;;;;5052839;28;20307;-74
2022/06/13 03:07:03;;;;;;;10.63;6.20;;;17.90;99.90;;;;;;5051122;28;20670;-75
2022/06/13 03:09:56;;;;;;;11.80;6.25;;;18.00;99.90;;;;;;5060612;28;20235;-73
2022/06/13 03:12:57;;;;;;;9.43;6.15;;;18.00;99.90;;;;;;5062472;28;20586;-74
2022/06/13 03:15:57;;;;;;;13.25;6.40;;;18.10;99.90;;;;;;5058657;28;20227;-72
2022/06/13 03:18:49;;;;;;;9.50;6.22;;;18.10;99.90;;;;;;5059135;28;20216;-72
2022/06/13 03:21:42;;;;;;;12.52;6.53;;;18.10;99.90;;;;;;5048452;28;20212;-70
2022/06/13 03:24:40;;;;;;;12.73;7.03;;;17.90;99.90;;;;;;5058704;28;20455;-73
2022/06/13 03:27:34;;;;;;;11.65;7.22;;;18.00;99.90;;;;;;5060208;28;20378;-72
2022/06/13 03:30:24;;;;;;;10.75;6.25;;;18.10;99.90;;;;;;5050849;28;20224;-72
2022/06/13 03:33:44;;;;;;;12.77;6.50;;;18.10;99.90;;;;;;5043658;28;20212;-72
2022/06/13 03:36:37;;;;;;;8.68;6.05;;;17.90;99.90;;;;;;5058965;28;20224;-73
2022/06/13 03:39:28;;;;;;;12.57;6.80;;;17.90;99.90;;;;;;5043108;28;20224;-75
2022/06/13 03:42:23;;;;;;;9.95;6.85;;;18.00;99.90;;;;;;5060988;28;20750;-74
2022/06/13 03:45:17;;;;;;;13.77;6.60;;;18.30;99.90;;;;;;5057458;28;20228;-73
2022/06/13 03:48:10;;;;;;;11.63;7.03;;;18.10;99.90;;;;;;5042130;28;20213;-73
2022/06/13 03:51:05;;;;;;;10.88;7.10;;;18.30;99.90;;;;;;5056141;28;20256;-73
2022/06/13 03:54:00;;;;;;;11.10;7.25;;;18.30;99.90;;;;;;5055558;28;20239;-74
2022/06/13 03:56:55;;;;;;;10.98;7.47;;;18.10;99.90;;;;;;5039953;28;20771;-74
2022/06/13 03:59:48;;;;;;;16.58;7.82;;;18.10;99.90;;;;;;5061257;28;20216;-74
2022/06/13 04:02:40;;;;;;;10.95;7.78;;;18.20;99.90;;;;;;5040368;28;20331;-73
2022/06/13 04:05:34;;;;;;;13.02;7.95;;;18.10;99.90;;;;;;5066236;28;20244;-71
2022/06/13 04:08:25;;;;;;;13.52;7.97;;;18.10;99.90;;;;;;5064468;28;20721;-71
2022/06/13 04:11:22;;;;;;;13.02;8.48;;;18.10;99.90;;;;;;5063372;28;20235;-71
2022/06/13 04:14:21;;;;;;;13.20;8.75;;;18.20;99.90;;;;;;5045298;28;20255;-71
2022/06/13 04:17:18;;;;;;;13.32;9.18;;;18.30;99.90;;;;;;5063813;28;20255;-70
2022/06/13 04:20:12;;;;;;;15.25;9.10;;;18.20;99.90;;;;;;5045970;28;20220;-72
2022/06/13 04:23:11;;;;;;;11.48;8.98;;;18.20;99.90;;;;;;5061331;28;20235;-70
2022/06/13 04:26:07;;;;;;;12.85;9.80;;;18.20;99.90;;;;;;5066389;28;20255;-72
2022/06/13 04:29:03;;;;;;;16.50;9.68;;;18.30;99.90;;;;;;5050024;28;20239;-71
2022/06/13 04:31:56;;;;;;;22.48;10.27;;;18.50;99.90;;;;;;5059366;28;20241;-75
2022/06/13 04:34:49;;;;;;;11.57;9.63;;;18.50;99.90;;;;;;5063541;28;20693;-72
2022/06/13 04:37:39;;;;;;;14.95;9.70;;;18.50;99.90;;;;;;5065902;28;20331;-73
2022/06/13 04:40:30;;;;;;;14.95;10.40;;;18.60;99.90;;;;;;5064345;28;20212;-73
2022/06/13 04:43:24;;;;;;;15.52;10.48;;;18.70;99.90;;;;;;5062818;28;20228;-73
2022/06/13 04:46:17;;;;;;;17.05;10.25;;;18.80;99.90;;;;;;5061509;28;20223;-74
2022/06/13 04:49:16;;;;;;;19.42;11.38;;;18.80;99.90;;;;;;5057123;28;20738;-73
2022/06/13 04:52:10;;;;;;;15.27;11.20;;;18.90;99.90;;;;;;5066018;28;20220;-73
2022/06/13 04:55:02;;;;;;;15.60;11.40;;;18.80;99.90;;;;;;5047137;28;20224;-74
2022/06/13 04:57:51;;;;;;;14.63;10.98;;;19.00;99.90;;;;;;5061726;28;20220;-74
2022/06/13 05:00:45;;;;;;;14.45;11.82;;;19.20;99.90;;;;;;5062594;28;20224;-74
2022/06/13 05:03:41;;;;;;;14.48;11.35;;;19.50;99.90;;;;;;5060766;28;20239;-74
2022/06/13 05:06:33;;;;;;;25.13;11.88;;;19.50;99.90;;;;;;5060058;28;20323;-73
2022/06/13 05:09:30;;;;;;;14.07;11.57;;;19.60;99.90;;;;;;5059435;28;20679;-73
2022/06/13 05:12:24;;;;;;;17.90;11.20;;;19.80;99.90;;;;;;5053135;28;20228;-74
2022/06/13 05:15:20;;;;;;;18.40;11.63;;;19.70;99.90;;;;;;5060540;28;20232;-73
2022/06/13 05:18:26;;;;;;;13.18;11.75;;;19.60;99.90;;;;;;5045458;28;20216;-73
2022/06/13 05:21:25;;;;;;;16.05;12.38;;;19.50;99.90;;;;;;5060568;28;20219;-74
2022/06/13 05:24:52;;;;;;;14.20;12.68;;;19.50;99.90;;;;;;5064668;28;20230;-74
2022/06/13 05:27:41;;;;;;;15.25;12.00;;;19.50;99.90;;;;;;5063740;28;20219;-74
2022/06/13 05:30:30;;;;;;;14.15;12.35;;;19.50;99.90;;;;;;5063114;28;20235;-74
2022/06/13 05:33:27;;;;;;;17.23;13.65;;;19.60;99.90;;;;;;5055936;28;20671;-74
2022/06/13 05:36:18;;;;;;;15.15;13.05;;;19.60;99.90;;;;;;5060456;28;20230;-73
2022/06/13 05:39:09;;;;;;;15.32;12.80;;;19.70;99.90;;;;;;5055846;28;20242;-74
2022/06/13 05:41:58;;;;;;;16.15;12.52;;;19.60;99.90;;;;;;5060848;28;20234;-75
2022/06/13 05:44:46;;;;;;;14.02;11.80;;;19.50;99.90;;;;;;5063023;28;20215;-74
2022/06/13 05:47:35;;;;;;;14.50;12.52;;;19.30;99.90;;;;;;5057877;28;20220;-74
2022/06/13 05:50:32;;;;;;;16.42;12.40;;;19.40;99.90;;;;;;5062254;28;20633;-74
2022/06/13 05:53:23;;;;;;;20.13;12.75;;;19.30;99.90;;;;;;5054577;28;20215;-75
2022/06/13 05:56:13;;;;;;;16.30;12.38;;;19.40;99.90;;;;;;5062580;28;20219;-74
2022/06/13 05:59:01;;;;;;;15.48;12.55;;;19.30;99.90;;;;;;5045444;28;20220;-74
2022/06/13 06:01:49;;;;;;;13.80;12.02;;;19.40;99.90;;;;;;5056623;28;20239;-72
2022/06/13 06:04:38;;;;;;;17.42;11.85;;;19.40;99.90;;;;;;5046663;28;20230;-75
2022/06/13 06:07:29;;;;;;;14.55;12.18;;;19.30;99.90;;;;;;5051646;28;20224;-74
2022/06/13 06:10:24;;;;;;;14.63;12.27;;;19.30;99.90;;;;;;5065170;28;20231;-73
2022/06/13 06:13:13;;;;;;;17.00;12.85;;;19.30;99.90;;;;;;5058293;28;20267;-73
2022/06/13 06:16:03;;;;;;;19.98;12.88;;;19.30;99.90;;;;;;5057914;28;20303;-74
2022/06/13 06:18:52;;;;;;;15.52;13.13;;;19.30;99.90;;;;;;5059000;28;20734;-76
2022/06/13 06:21:44;;;;;;;15.88;13.30;;;19.30;99.90;;;;;;5057487;28;21019;-78
2022/06/13 06:24:34;;;;;;;17.58;12.88;;;19.40;99.90;;;;;;5060267;28;21004;-74
2022/06/13 06:27:23;;;;;;;14.48;12.45;;;19.50;99.90;;;;;;5065275;28;20647;-73
2022/06/13 06:30:14;;;;;;;12.82;11.55;;;19.40;99.90;;;;;;5062114;28;20232;-76
2022/06/13 06:33:03;;;;;;;13.95;11.48;;;19.50;99.90;;;;;;5062596;28;20243;-76
2022/06/13 06:35:52;;;;;;;16.45;11.73;;;19.50;99.90;;;;;;5048684;28;20231;-80
2022/06/13 06:38:41;;;;;;;11.45;10.15;;;19.60;99.90;;;;;;5067926;28;21061;-79
2022/06/13 06:41:31;;;;;;;10.70;9.35;;;19.70;99.90;;;;;;5068778;28;20303;-78
2022/06/13 06:44:20;;;;;;;13.75;9.75;;;19.90;99.90;;;;;;5049075;28;20227;-71
2022/06/13 06:47:08;;;;;;;12.07;8.75;;;20.10;99.90;;;;;;5064965;28;20220;-73
2022/06/13 06:49:57;;;;;;;12.05;8.73;;;20.10;99.90;;;;;;5073073;28;20239;-71
2022/06/13 06:52:46;;;;;;;11.75;9.60;;;20.30;99.90;;;;;;5066978;28;20235;-71
2022/06/13 07:01:56;;;;;;;13.88;9.07;;;20.80;99.90;;;;;;5051986;28;20228;-73
2022/06/13 07:04:47;;;;;;;10.68;8.10;;;21.00;99.90;;;;;;5063747;28;20224;-72
2022/06/13 07:07:36;;;;;;;11.30;8.98;;;21.10;99.90;;;;;;5063245;28;20207;-75
2022/06/13 07:10:28;;;;;;;11.82;8.40;;;21.20;99.90;;;;;;5067035;28;20236;-77
2022/06/13 07:13:19;;;;;;;9.93;7.72;;;21.40;99.90;;;;;;5057839;28;20670;-76
2022/06/13 07:16:10;;;;;;;9.23;8.15;;;21.50;99.90;;;;;;5061408;28;20227;-75
2022/06/13 07:18:59;;;;;;;13.77;7.35;;;21.50;99.90;;;;;;5067339;28;20248;-77
2022/06/13 07:21:48;;;;;;;10.32;7.88;;;21.60;99.90;;;;;;5064408;28;20250;-77
2022/06/13 07:24:36;;;;;;;10.50;6.40;;;21.60;99.90;;;;;;5064158;28;20726;-76
2022/06/13 07:27:25;;;;;;;6.97;5.65;;;21.50;99.90;;;;;;5063875;28;20217;-77
2022/06/13 07:30:15;;;;;;;7.75;4.90;;;21.50;99.90;;;;;;5062449;28;20603;-75
2022/06/13 07:33:05;;;;;;;5.13;4.53;;;21.60;99.90;;;;;;5063273;28;20211;-75
2022/06/13 07:35:54;;;;;;;7.15;4.93;;;21.60;99.90;;;;;;5064600;28;20220;-75
2022/06/13 07:38:42;;;;;;;7.53;4.68;;;21.60;99.90;;;;;;5055740;28;20220;-74
2022/06/13 07:41:31;;;;;;;7.30;5.10;;;21.70;99.90;;;;;;5049409;28;20851;-76
2022/06/13 07:44:23;;;;;;;8.25;5.55;;;21.80;99.90;;;;;;5060214;28;20224;-73
2022/06/13 07:47:19;;;;;;;8.25;5.10;;;21.80;99.90;;;;;;5051093;28;20255;-75
2022/06/13 07:50:11;;;;;;;7.63;4.97;;;21.90;99.90;;;;;;5060813;28;20877;-76
2022/06/13 07:52:59;;;;;;;7.63;5.00;;;22.00;99.90;;;;;;5061747;28;20223;-76
2022/06/13 07:55:48;;;;;;;5.28;4.55;;;21.90;99.90;;;;;;5062944;28;20394;-76
2022/06/13 07:58:38;;;;;;;9.73;4.90;;;21.90;99.90;;;;;;5048822;28;20220;-74
2022/06/13 08:01:28;;;;;;;6.40;4.72;;;22.00;99.90;;;;;;5047148;28;20231;-73
2022/06/13 08:04:17;;;;;;;6.80;4.45;;;22.00;99.90;;;;;;5046061;28;20228;-73
2022/06/13 08:07:07;;;;;;;6.70;4.47;;;22.20;99.90;;;;;;5058167;28;20224;-73
2022/06/13 08:09:56;;;;;;;4.78;4.30;;;22.40;99.90;;;;;;5057870;28;20219;-72
2022/06/13 08:12:46;;;;;;;7.57;4.20;;;22.40;99.90;;;;;;5062340;28;20231;-73
2022/06/13 08:15:35;;;;;;;4.20;3.38;;;22.30;99.90;;;;;;5054672;28;20219;-73
2022/06/13 08:18:24;;;;;;;4.47;3.40;;;22.30;99.90;;;;;;5062408;28;20586;-72
2022/06/13 08:21:12;;;;;;;5.50;3.28;;;22.20;99.90;;;;;;5057112;28;20224;-75
2022/06/13 08:24:03;;;;;;;3.55;3.10;;;21.90;99.90;;;;;;5062297;28;20232;-74
2022/06/13 08:27:03;;;;;;;3.58;3.08;;;22.00;99.90;;;;;;5075618;28;20228;-73
2022/06/13 08:29:51;;;;;;;4.20;3.40;;;22.10;99.90;;;;;;5067133;28;20227;-75
2022/06/13 08:32:41;;;;;;;4.40;2.83;;;22.20;99.90;;;;;;5062121;28;20228;-74
2022/06/13 08:35:30;;;;;;;8.60;3.00;;;22.20;99.90;;;;;;5061288;28;20651;-76
2022/06/13 08:38:24;;;;;;;3.60;3.30;;;22.20;99.90;;;;;;5052580;28;20231;-75
2022/06/13 08:41:30;;;;;;;7.00;4.10;;;22.00;99.90;;;;;;5064947;28;20227;-75
2022/06/13 08:44:43;;;;;;;6.55;3.97;;;22.00;99.90;;;;;;5062846;28;20300;-75
2022/06/13 08:47:43;;;;;;;7.55;4.15;;;22.10;99.90;;;;;;5047341;28;20564;-74
2022/06/13 08:50:42;;;;;;;5.00;4.50;;;22.00;99.90;;;;;;5062675;28;20236;-75
2022/06/13 08:53:35;;;;;;;6.15;4.45;;;22.00;99.90;;;;;;5060391;28;20299;-75
2022/06/13 08:56:28;;;;;;;7.13;4.93;;;21.80;99.90;;;;;;5061308;28;20292;-75
2022/06/13 08:59:26;;;;;;;5.78;4.85;;;21.70;99.90;;;;;;5049408;28;20290;-75
2022/06/13 09:02:21;;;;;;;9.18;5.45;;;21.70;99.90;;;;;;5046193;28;20228;-74
2022/06/13 09:05:15;;;;;;;7.00;5.28;;;21.60;99.90;;;;;;5064037;28;20324;-76
2022/06/13 09:08:16;;;;;;;6.13;5.15;;;21.50;99.90;;;;;;5061148;28;20224;-77
2022/06/13 09:11:14;;;;;;;5.63;5.13;;;21.60;99.90;;;;;;5059347;28;20583;-75
2022/06/13 09:14:13;;;;;;;10.85;5.57;;;21.60;99.90;;;;;;5060521;28;20628;-74
2022/06/13 09:17:10;;;;;;;7.72;5.22;;;21.50;99.90;;;;;;5058226;28;20714;-75
2022/06/13 09:20:06;;;;;;;7.47;5.03;;;21.70;99.90;;;;;;5068924;28;20238;-75
2022/06/13 09:23:03;;;;;;;5.38;4.63;;;21.70;99.90;;;;;;5063338;28;20228;-75
2022/06/13 09:25:57;;;;;;;5.53;4.50;;;21.70;99.90;;;;;;5077787;28;20220;-76
2022/06/13 09:28:51;;;;;;;5.15;4.38;;;21.70;99.90;;;;;;5058841;28;20878;-75
2022/06/13 09:31:43;;;;;;;4.57;3.88;;;21.70;99.90;;;;;;5062585;28;20228;-75
2022/06/13 09:34:39;;;;;;;4.93;4.20;;;21.50;99.90;;;;;;5063904;28;20342;-76
2022/06/13 09:37:33;;;;;;;7.75;3.90;;;21.50;99.90;;;;;;5064140;28;20223;-76
2022/06/13 09:40:31;;;;;;;39.60;5.60;;;21.30;99.90;;;;;;5061908;28;20220;-75
2022/06/13 09:43:36;;;;;;;6.03;4.10;;;21.30;99.90;;;;;;5059582;28;20220;-75
2022/06/13 09:46:38;;;;;;;8.85;4.57;;;21.20;99.90;;;;;;5063422;28;20254;-78
2022/06/13 09:49:37;;;;;;;4.80;4.13;;;21.20;99.90;;;;;;5046722;28;20226;-76
2022/06/13 09:52:37;;;;;;;4.50;4.10;;;21.10;99.90;;;;;;5064263;28;20221;-77
2022/06/13 09:55:31;;;;;;;4.47;4.07;;;21.00;99.90;;;;;;5056822;28;20714;-76
2022/06/13 09:58:30;;;;;;;5.45;4.10;;;20.90;99.90;;;;;;5047075;28;20289;-78
2022/06/13 10:01:23;;;;;;;5.20;4.15;;;20.80;99.90;;;;;;5063980;28;20207;-75
2022/06/13 10:04:16;;;;;;;6.57;4.20;;;20.50;99.90;;;;;;5056933;28;20231;-76
2022/06/13 10:07:11;;;;;;;6.88;4.40;;;20.60;99.90;;;;;;5058493;28;20792;-75
2022/06/13 10:10:06;;;;;;;4.93;4.50;;;20.70;99.90;;;;;;5058754;28;20216;-76
2022/06/13 10:13:15;;;;;;;5.28;4.45;;;20.80;99.90;;;;;;5061130;28;20219;-77
2022/06/13 10:16:11;;;;;;;5.32;4.82;;;20.70;99.90;;;;;;5056810;28;20336;-79
2022/06/13 10:19:09;;;;;;;6.40;5.00;;;20.70;99.90;;;;;;5057321;28;20232;-81
2022/06/13 10:22:05;;;;;;;10.15;5.32;;;20.80;99.90;;;;;;5059070;28;20212;-79
2022/06/13 10:25:09;;;;;;;4.95;4.45;;;20.90;99.90;;;;;;5052540;28;20216;-80
2022/06/13 10:28:06;;;;;;;7.38;5.55;;;20.90;99.90;;;;;;5062810;28;20297;-77
2022/06/13 10:31:01;;;;;;;8.13;5.20;;;21.00;99.90;;;;;;5058186;28;20231;-78
2022/06/13 10:34:00;;;;;;;5.43;4.93;;;20.90;99.90;;;;;;5057456;28;20213;-78
2022/06/13 10:36:57;;;;;;;5.15;4.65;;;20.90;99.90;;;;;;5053142;28;20273;-80
2022/06/13 10:39:47;;;;;;;5.32;4.60;;;20.80;99.90;;;;;;5048849;28;20227;-80
2022/06/13 10:42:38;;;;;;;4.97;4.47;;;20.70;99.90;;;;;;5052853;28;20219;-80
2022/06/13 10:45:27;;;;;;;5.70;4.90;;;20.70;99.90;;;;;;5065771;28;20233;-79
2022/06/13 10:48:23;;;;;;;5.95;4.57;;;20.60;99.90;;;;;;5066899;28;20223;-80
2022/06/13 10:51:11;;;;;;;5.15;4.30;;;20.80;99.90;;;;;;5063629;28;20228;-80
2022/06/13 10:54:07;;;;;;;4.85;4.30;;;20.80;99.90;;;;;;5063358;28;20227;-81
2022/06/13 10:57:02;;;;;;;5.25;4.10;;;20.90;99.90;;;;;;5058289;28;20304;-79
2022/06/13 11:00:12;;;;;;;4.93;3.80;;;20.70;99.90;;;;;;5061011;28;20220;-81
2022/06/13 11:03:12;;;;;;;8.50;4.40;;;20.80;99.90;;;;;;5061868;28;20824;-79
2022/06/13 11:06:04;;;;;;;4.55;4.03;;;21.10;99.90;;;;;;5050137;28;20221;-78
2022/06/13 11:09:00;;;;;;;5.90;3.58;;;21.30;99.90;;;;;;5058657;28;20224;-79
2022/06/13 11:11:53;;;;;;;5.50;4.25;;;21.30;99.90;;;;;;5063245;28;20723;-79
2022/06/13 11:24:41;;;;;;;6.32;4.20;;;21.70;99.90;;;;;;5049456;28;20232;-79
2022/06/13 11:27:42;;;;;;;7.30;4.00;;;21.90;99.90;;;;;;5043288;28;20225;-77
2022/06/13 11:30:46;;;;;;;7.72;4.43;;;21.70;99.90;;;;;;5059442;28;20587;-78
2022/06/13 11:33:40;;;;;;;6.90;5.32;;;21.70;99.90;;;;;;5063836;28;20235;-80
2022/06/13 11:36:30;;;;;;;5.35;4.60;;;21.70;99.90;;;;;;5069888;28;20672;-79
2022/06/13 11:39:32;;;;;;;7.88;4.38;;;21.80;99.90;;;;;;5042524;28;20227;-78
2022/06/13 11:42:26;;;;;;;5.72;3.95;;;21.80;99.90;;;;;;5061488;28;20255;-79
2022/06/13 11:45:25;;;;;;;6.03;3.72;;;21.60;99.90;;;;;;5049345;28;20706;-79
2022/06/13 11:48:15;;;;;;;6.35;3.90;;;21.90;99.90;;;;;;5055669;28;20556;-79
2022/06/13 11:51:17;;;;;;;6.57;4.10;;;21.90;99.90;;;;;;5060516;28;20378;-79
2022/06/13 11:54:06;;;;;;;5.15;4.55;;;21.90;99.90;;;;;;5063249;28;20228;-78
2022/06/13 11:57:18;;;;;;;7.00;4.63;;;21.80;99.90;;;;;;5047129;28;20217;-78
2022/06/13 12:00:12;;;;;;;4.70;4.22;;;21.70;99.90;;;;;;5043167;28;21354;-79
2022/06/13 12:03:19;;;;;;;6.38;4.90;;;21.40;99.90;;;;;;5059696;28;20228;-81
2022/06/13 12:06:13;;;;;;;7.53;4.78;;;21.10;99.90;;;;;;5066462;28;20219;-80
2022/06/13 12:09:06;;;;;;;5.18;4.63;;;20.90;99.90;;;;;;5062430;28;20224;-79
2022/06/13 12:11:58;;;;;;;6.10;5.50;;;20.80;99.90;;;;;;5052457;28;20726;-80
2022/06/13 12:14:48;;;;;;;10.82;6.10;;;20.80;99.90;;;;;;5045099;28;20224;-80
2022/06/13 12:17:40;;;;;;;8.60;5.90;;;20.70;99.90;;;;;;5063411;28;20227;-79
2022/06/13 12:20:34;;;;;;;11.57;6.13;;;20.60;99.90;;;;;;5049927;28;20220;-80
2022/06/13 12:23:30;;;;;;;7.57;5.63;;;20.50;99.90;;;;;;5067041;28;20254;-79
2022/06/13 12:26:26;;;;;;;10.73;6.50;;;20.30;99.90;;;;;;5055051;28;20216;-78
2022/06/13 12:29:32;;;;;;;7.97;5.63;;;20.10;99.90;;;;;;5063163;28;20222;-79
2022/06/13 12:32:25;;;;;;;13.73;6.28;;;20.00;99.90;;;;;;5059444;28;20224;-80
2022/06/13 12:35:30;;;;;;;7.03;5.53;;;19.70;99.90;;;;;;5060340;28;20220;-79
2022/06/13 12:38:40;;;;;;;14.80;4.30;;;19.70;99.90;;;;;;5054944;28;20239;-75
2022/06/13 12:41:39;;;;;;;8.20;2.83;;;19.40;99.90;;;;;;5028521;28;20224;-77
2022/06/13 12:44:53;;;;;;;3.17;2.10;;;19.10;99.90;;;;;;5061580;28;20583;-77
2022/06/13 12:48:09;;;;;;;3.17;1.98;;;19.00;99.90;;;;;;5056599;28;20227;-76
2022/06/13 12:51:26;;;;;;;2.28;1.77;;;18.50;99.90;;;;;;5059884;28;20815;-78
2022/06/13 12:54:41;;;;;;;7.47;1.80;;;18.00;99.90;;;;;;5063919;28;20224;-85
2022/06/13 12:57:46;;;;;;;1.88;1.25;;;17.90;99.90;;;;;;5061642;28;20384;-76
2022/06/13 13:00:41;;;;;;;1.80;1.15;;;17.50;99.90;;;;;;5060777;28;20615;-74
2022/06/13 13:04:09;;;;;;;3.38;1.33;;;17.40;99.90;;;;;;5059975;28;20239;-75
2022/06/13 13:07:03;;;;;;;11.23;1.80;;;17.40;99.90;;;;;;5060087;28;20244;-74
2022/06/13 13:10:21;;;;;;;5.80;1.98;;;17.40;99.90;;;;;;5048586;28;20217;-77
2022/06/13 13:13:37;;;;;;;6.95;2.10;;;17.20;99.90;;;;;;5043531;28;20242;-76
2022/06/13 13:16:36;;;;;;;8.63;2.42;;;17.00;99.90;;;;;;5062989;28;20389;-76
2022/06/13 13:19:37;;;;;;;4.20;2.38;;;16.70;99.90;;;;;;5056937;28;20224;-76
2022/06/13 13:22:33;;;;;;;3.72;2.50;;;16.40;99.90;;;;;;5034367;28;20219;-77
2022/06/13 13:25:54;;;;;;;5.63;2.53;;;16.40;99.90;;;;;;5077771;28;20227;-74
2022/06/13 13:28:53;;;;;;;11.43;3.03;;;16.40;99.90;;;;;;5053538;28;20232;-75
2022/06/13 13:31:46;;;;;;;6.22;2.50;;;16.50;99.90;;;;;;5057262;28;20223;-75
2022/06/13 13:34:41;;;;;;;8.55;3.45;;;16.30;99.90;;;;;;5049401;28;20227;-74
2022/06/13 13:37:34;;;;;;;7.60;2.42;;;16.30;99.90;;;;;;5061306;28;20220;-76
2022/06/13 13:40:34;;;;;;;4.65;2.67;;;16.10;99.90;;;;;;5062543;28;20317;-76
2022/06/13 13:43:33;;;;;;;5.47;2.75;;;16.10;99.90;;;;;;5051838;28;20231;-77
2022/06/13 13:46:36;;;;;;;5.32;3.10;;;15.90;99.90;;;;;;5062576;28;21096;-76
2022/06/13 13:49:36;;;;;;;7.05;2.92;;;15.80;99.90;;;;;;5063614;28;20223;-75
2022/06/13 13:52:30;;;;;;;3.65;2.88;;;15.90;99.90;;;;;;5060843;28;20212;-75
2022/06/13 13:55:22;;;;;;;5.13;2.95;;;15.80;99.90;;;;;;5061475;28;20212;-75
2022/06/13 13:58:26;;;;;;;3.83;2.25;;;15.80;99.90;;;;;;5060424;28;20223;-73
2022/06/13 14:01:56;;;;;;;4.10;2.50;;;15.60;99.90;;;;;;5060529;28;20239;-75
2022/06/13 14:04:58;;;;;;;3.45;2.38;;;15.80;99.90;;;;;;5048593;28;20319;-76
2022/06/13 14:07:59;;;;;;;4.25;2.75;;;15.70;99.90;;;;;;5063499;28;20223;-78
2022/06/13 14:10:50;;;;;;;3.47;2.58;;;15.80;99.90;;;;;;5058738;28;20551;-76
2022/06/13 14:13:41;;;;;;;3.03;2.38;;;15.80;99.90;;;;;;5058691;28;20324;-75
2022/06/13 14:16:40;;;;;;;6.10;2.80;;;16.00;99.90;;;;;;5061337;28;20223;-74
2022/06/13 14:19:34;;;;;;;4.47;2.88;;;16.00;99.90;;;;;;5061324;28;20572;-77
2022/06/13 14:22:25;;;;;;;6.15;3.00;;;16.10;99.90;;;;;;5063990;28;20222;-76
2022/06/13 14:25:23;;;;;;;4.90;2.75;;;16.10;99.90;;;;;;5060677;28;21275;-76
2022/06/13 14:28:17;;;;;;;3.78;2.85;;;16.10;99.90;;;;;;5067672;28;20732;-77
2022/06/13 14:31:06;;;;;;;3.92;3.20;;;16.30;99.90;;;;;;5063192;28;20271;-78
2022/06/13 14:37:13;;;;;;;4.72;2.70;;;16.40;99.90;;;;;;5036280;28;20230;-75
2022/06/13 14:40:11;;;;;;;2.90;2.33;;;16.50;99.90;;;;;;5059406;28;20591;-74
2022/06/13 14:43:06;;;;;;;4.00;2.30;;;16.50;99.90;;;;;;5058031;28;20224;-74
2022/06/13 14:45:57;;;;;;;4.30;2.47;;;16.50;99.90;;;;;;5057124;28;20231;-74
2022/06/13 14:48:49;;;;;;;3.58;2.22;;;16.60;99.90;;;;;;5061938;28;20373;-76
2022/06/13 14:51:56;;;;;;;5.28;2.53;;;16.50;99.90;;;;;;5042169;28;20227;-75
2022/06/13 14:55:09;;;;;;;3.33;2.63;;;16.70;99.90;;;;;;5061607;28;20215;-76
2022/06/13 14:57:59;;;;;;;4.72;3.00;;;16.60;99.90;;;;;;5063296;28;20223;-75
2022/06/13 15:01:18;;;;;;;4.43;3.30;;;16.60;99.90;;;;;;5062767;28;20212;-76
2022/06/13 15:04:22;;;;;;;3.85;2.95;;;16.60;99.90;;;;;;5058681;28;20224;-75
2022/06/13 15:07:35;;;;;;;4.20;2.95;;;16.50;99.90;;;;;;5061606;28;20228;-78
2022/06/13 15:10:40;;;;;;;4.57;3.40;;;16.60;99.90;;;;;;5066835;28;20220;-74
2022/06/13 15:13:39;;;;;;;5.65;2.42;;;16.40;99.90;;;;;;5069387;28;20224;-72
2022/06/13 15:16:31;;;;;;;6.30;2.67;;;16.30;99.90;;;;;;5063430;28;20862;-73
2022/06/13 15:19:23;;;;;;;4.60;3.08;;;16.50;99.90;;;;;;5066452;28;20331;-73
2022/06/13 15:22:18;;;;;;;5.45;2.95;;;16.30;99.90;;;;;;5064201;28;20224;-74
2022/06/13 15:25:09;;;;;;;5.65;3.55;;;16.00;99.90;;;;;;5062996;28;20277;-73